sensor_id;sensor_type;location;lat;lon;timestamp;temperature;humidity
52024;DHT22;38038;45.922;13.604;2023-02-15T00:00:17;2.20;99.90
52024;DHT22;38038;45.922;13.604;2023-02-15T00:02:43;2.50;99.90
52024;DHT22;38038;45.922;13.604;2023-02-15T00:05:09;2.70;99.90
52024;DHT22;38038;45.922;13.604;2023-02-15T00:07:35;2.90;99.90
52024;DHT22;38038;45.922;13.604;2023-02-15T00:10:00;3.00;99.90
52024;DHT22;38038;45.922;13.604;2023-02-15T00:12:26;3.10;99.90
52024;DHT22;38038;45.922;13.604;2023-02-15T00:14:52;3.10;99.90
52024;DHT22;38038;45.922;13.604;2023-02-15T00:17:17;3.20;99.90
52024;DHT22;38038;45.922;13.604;2023-02-15T00:19:43;3.00;99.90
52024;DHT22;38038;45.922;13.604;2023-02-15T00:22:09;2.70;99.90
52024;DHT22;38038;45.922;13.604;2023-02-15T00:24:35;2.70;99.90
52024;DHT22;38038;45.922;13.604;2023-02-15T00:27:00;2.60;99.90
52024;DHT22;38038;45.922;13.604;2023-02-15T00:29:26;2.70;99.90
52024;DHT22;38038;45.922;13.604;2023-02-15T00:31:53;2.70;99.90
52024;DHT22;38038;45.922;13.604;2023-02-15T00:34:21;2.60;99.90
52024;DHT22;38038;45.922;13.604;2023-02-15T00:36:48;2.60;99.90
52024;DHT22;38038;45.922;13.604;2023-02-15T00:39:14;2.50;99.90
52024;DHT22;38038;45.922;13.604;2023-02-15T00:41:40;2.30;99.90
52024;DHT22;38038;45.922;13.604;2023-02-15T00:44:06;2.30;99.90
52024;DHT22;38038;45.922;13.604;2023-02-15T00:46:33;2.30;99.90
52024;DHT22;38038;45.922;13.604;2023-02-15T00:48:59;2.20;99.90
52024;DHT22;38038;45.922;13.604;2023-02-15T00:51:24;2.30;99.90
52024;DHT22;38038;45.922;13.604;2023-02-15T00:53:50;2.40;99.90
52024;DHT22;38038;45.922;13.604;2023-02-15T00:56:16;2.30;99.90
52024;DHT22;38038;45.922;13.604;2023-02-15T00:58:42;2.40;99.90
52024;DHT22;38038;45.922;13.604;2023-02-15T01:01:10;2.50;99.90
52024;DHT22;38038;45.922;13.604;2023-02-15T01:03:37;2.70;99.90
52024;DHT22;38038;45.922;13.604;2023-02-15T01:06:03;2.90;99.90
52024;DHT22;38038;45.922;13.604;2023-02-15T01:08:29;3.10;99.90
52024;DHT22;38038;45.922;13.604;2023-02-15T01:10:55;2.70;99.90
52024;DHT22;38038;45.922;13.604;2023-02-15T01:13:22;2.60;99.90
52024;DHT22;38038;45.922;13.604;2023-02-15T01:15:54;2.40;99.90
52024;DHT22;38038;45.922;13.604;2023-02-15T01:18:35;2.30;99.90
52024;DHT22;38038;45.922;13.604;2023-02-15T01:21:16;2.30;99.90
52024;DHT22;38038;45.922;13.604;2023-02-15T01:23:43;2.20;99.90
52024;DHT22;38038;45.922;13.604;2023-02-15T01:26:09;2.20;99.90
52024;DHT22;38038;45.922;13.604;2023-02-15T01:28:35;2.30;99.90
52024;DHT22;38038;45.922;13.604;2023-02-15T01:31:14;2.20;99.90
52024;DHT22;38038;45.922;13.604;2023-02-15T01:33:40;2.10;99.90
52024;DHT22;38038;45.922;13.604;2023-02-15T01:36:06;2.10;99.90
52024;DHT22;38038;45.922;13.604;2023-02-15T01:38:32;2.10;99.90
52024;DHT22;38038;45.922;13.604;2023-02-15T01:40:58;2.00;99.90
52024;DHT22;38038;45.922;13.604;2023-02-15T01:43:44;2.00;99.90
52024;DHT22;38038;45.922;13.604;2023-02-15T01:46:13;2.20;99.90
52024;DHT22;38038;45.922;13.604;2023-02-15T01:48:49;2.10;99.90
52024;DHT22;38038;45.922;13.604;2023-02-15T01:51:20;2.20;99.90
52024;DHT22;38038;45.922;13.604;2023-02-15T01:54:27;2.30;99.90
52024;DHT22;38038;45.922;13.604;2023-02-15T01:57:00;3.70;99.90
52024;DHT22;38038;45.922;13.604;2023-02-15T01:59:28;4.10;99.90
52024;DHT22;38038;45.922;13.604;2023-02-15T02:01:57;4.20;99.90
52024;DHT22;38038;45.922;13.604;2023-02-15T02:06:57;4.20;99.90
52024;DHT22;38038;45.922;13.604;2023-02-15T02:09:24;3.50;99.90
52024;DHT22;38038;45.922;13.604;2023-02-15T02:11:50;3.00;99.90
52024;DHT22;38038;45.922;13.604;2023-02-15T02:14:17;2.70;99.90
52024;DHT22;38038;45.922;13.604;2023-02-15T02:17:05;2.50;99.90
52024;DHT22;38038;45.922;13.604;2023-02-15T02:28:04;2.70;99.90
52024;DHT22;38038;45.922;13.604;2023-02-15T02:34:01;4.00;99.90
52024;DHT22;38038;45.922;13.604;2023-02-15T02:39:28;4.90;99.90
52024;DHT22;38038;45.922;13.604;2023-02-15T02:42:18;5.40;99.90
52024;DHT22;38038;45.922;13.604;2023-02-15T02:45:12;5.80;99.90
52024;DHT22;38038;45.922;13.604;2023-02-15T02:47:52;6.00;99.90
52024;DHT22;38038;45.922;13.604;2023-02-15T02:50:26;6.20;99.90
52024;DHT22;38038;45.922;13.604;2023-02-15T02:52:55;6.20;99.90
52024;DHT22;38038;45.922;13.604;2023-02-15T02:57:53;4.30;99.90
52024;DHT22;38038;45.922;13.604;2023-02-15T03:00:21;3.60;99.90
52024;DHT22;38038;45.922;13.604;2023-02-15T03:02:52;2.70;99.90
52024;DHT22;38038;45.922;13.604;2023-02-15T03:05:22;2.40;99.90
52024;DHT22;38038;45.922;13.604;2023-02-15T03:07:52;2.20;99.90
52024;DHT22;38038;45.922;13.604;2023-02-15T03:10:21;2.20;99.90
52024;DHT22;38038;45.922;13.604;2023-02-15T03:12:48;2.30;99.90
52024;DHT22;38038;45.922;13.604;2023-02-15T03:15:24;2.40;99.90
52024;DHT22;38038;45.922;13.604;2023-02-15T03:17:59;2.30;99.90
52024;DHT22;38038;45.922;13.604;2023-02-15T03:20:34;2.40;99.90
52024;DHT22;38038;45.922;13.604;2023-02-15T03:23:06;2.20;99.90
52024;DHT22;38038;45.922;13.604;2023-02-15T03:25:40;2.10;99.90
52024;DHT22;38038;45.922;13.604;2023-02-15T03:28:09;2.10;99.90
52024;DHT22;38038;45.922;13.604;2023-02-15T03:30:38;2.20;99.90
52024;DHT22;38038;45.922;13.604;2023-02-15T03:33:05;2.20;99.90
52024;DHT22;38038;45.922;13.604;2023-02-15T03:38:09;2.30;99.90
52024;DHT22;38038;45.922;13.604;2023-02-15T03:40:42;2.30;99.90
52024;DHT22;38038;45.922;13.604;2023-02-15T03:48:42;2.40;99.90
52024;DHT22;38038;45.922;13.604;2023-02-15T03:51:14;2.40;99.90
52024;DHT22;38038;45.922;13.604;2023-02-15T03:54:28;2.60;99.90
52024;DHT22;38038;45.922;13.604;2023-02-15T03:59:58;3.00;99.90
52024;DHT22;38038;45.922;13.604;2023-02-15T04:05:31;3.30;99.90
52024;DHT22;38038;45.922;13.604;2023-02-15T04:07:57;3.40;99.90
52024;DHT22;38038;45.922;13.604;2023-02-15T04:10:23;3.60;99.90
52024;DHT22;38038;45.922;13.604;2023-02-15T04:13:07;3.90;99.90
52024;DHT22;38038;45.922;13.604;2023-02-15T04:15:32;4.00;99.90
52024;DHT22;38038;45.922;13.604;2023-02-15T04:18:16;3.90;99.90
52024;DHT22;38038;45.922;13.604;2023-02-15T04:20:46;3.60;99.90
52024;DHT22;38038;45.922;13.604;2023-02-15T04:23:31;3.60;99.90
52024;DHT22;38038;45.922;13.604;2023-02-15T04:26:15;3.90;99.90
52024;DHT22;38038;45.922;13.604;2023-02-15T04:28:41;4.00;99.90
52024;DHT22;38038;45.922;13.604;2023-02-15T04:31:07;3.60;99.90
52024;DHT22;38038;45.922;13.604;2023-02-15T04:33:32;3.50;99.90
52024;DHT22;38038;45.922;13.604;2023-02-15T04:35:58;3.30;99.90
52024;DHT22;38038;45.922;13.604;2023-02-15T04:38:24;3.60;99.90
52024;DHT22;38038;45.922;13.604;2023-02-15T04:40:51;3.70;99.90
52024;DHT22;38038;45.922;13.604;2023-02-15T04:43:20;4.20;99.90
52024;DHT22;38038;45.922;13.604;2023-02-15T04:45:49;4.40;99.90
52024;DHT22;38038;45.922;13.604;2023-02-15T04:48:16;4.60;99.90
52024;DHT22;38038;45.922;13.604;2023-02-15T04:50:42;5.00;99.90
52024;DHT22;38038;45.922;13.604;2023-02-15T04:53:08;5.20;99.90
52024;DHT22;38038;45.922;13.604;2023-02-15T04:55:34;5.40;99.90
52024;DHT22;38038;45.922;13.604;2023-02-15T04:57:59;5.70;99.90
52024;DHT22;38038;45.922;13.604;2023-02-15T05:00:25;5.90;99.90
52024;DHT22;38038;45.922;13.604;2023-02-15T05:02:51;5.90;99.90
52024;DHT22;38038;45.922;13.604;2023-02-15T05:05:16;6.10;99.90
52024;DHT22;38038;45.922;13.604;2023-02-15T05:07:42;6.20;99.90
52024;DHT22;38038;45.922;13.604;2023-02-15T05:10:08;6.40;99.90
52024;DHT22;38038;45.922;13.604;2023-02-15T05:12:34;6.40;99.90
52024;DHT22;38038;45.922;13.604;2023-02-15T05:15:00;6.50;99.90
52024;DHT22;38038;45.922;13.604;2023-02-15T05:17:26;6.50;99.90
52024;DHT22;38038;45.922;13.604;2023-02-15T05:19:51;6.50;99.90
52024;DHT22;38038;45.922;13.604;2023-02-15T05:22:17;6.20;99.90
52024;DHT22;38038;45.922;13.604;2023-02-15T05:24:43;4.80;99.90
52024;DHT22;38038;45.922;13.604;2023-02-15T05:27:27;3.70;99.90
52024;DHT22;38038;45.922;13.604;2023-02-15T05:30:12;2.70;99.90
52024;DHT22;38038;45.922;13.604;2023-02-15T05:32:38;2.20;99.90
52024;DHT22;38038;45.922;13.604;2023-02-15T05:35:06;2.00;99.90
52024;DHT22;38038;45.922;13.604;2023-02-15T05:37:32;1.90;99.90
52024;DHT22;38038;45.922;13.604;2023-02-15T05:39:58;2.10;99.90
52024;DHT22;38038;45.922;13.604;2023-02-15T05:42:24;2.10;99.90
52024;DHT22;38038;45.922;13.604;2023-02-15T05:44:49;2.20;99.90
52024;DHT22;38038;45.922;13.604;2023-02-15T05:47:15;2.30;99.90
52024;DHT22;38038;45.922;13.604;2023-02-15T05:49:41;2.50;99.90
52024;DHT22;38038;45.922;13.604;2023-02-15T05:52:06;3.30;99.90
52024;DHT22;38038;45.922;13.604;2023-02-15T05:54:33;3.40;99.90
52024;DHT22;38038;45.922;13.604;2023-02-15T05:56:59;3.40;99.90
52024;DHT22;38038;45.922;13.604;2023-02-15T05:59:24;3.70;99.90
52024;DHT22;38038;45.922;13.604;2023-02-15T06:01:50;4.00;99.90
52024;DHT22;38038;45.922;13.604;2023-02-15T06:04:17;4.20;99.90
52024;DHT22;38038;45.922;13.604;2023-02-15T06:06:42;4.30;99.90
52024;DHT22;38038;45.922;13.604;2023-02-15T06:09:09;4.40;99.90
52024;DHT22;38038;45.922;13.604;2023-02-15T06:11:35;4.20;99.90
52024;DHT22;38038;45.922;13.604;2023-02-15T06:14:01;3.80;99.90
52024;DHT22;38038;45.922;13.604;2023-02-15T06:16:27;3.40;99.90
52024;DHT22;38038;45.922;13.604;2023-02-15T06:18:52;3.10;99.90
52024;DHT22;38038;45.922;13.604;2023-02-15T06:21:18;2.90;99.90
52024;DHT22;38038;45.922;13.604;2023-02-15T06:23:44;2.80;99.90
52024;DHT22;38038;45.922;13.604;2023-02-15T06:26:09;3.00;99.90
52024;DHT22;38038;45.922;13.604;2023-02-15T06:28:35;3.30;99.90
52024;DHT22;38038;45.922;13.604;2023-02-15T06:31:03;4.20;99.90
52024;DHT22;38038;45.922;13.604;2023-02-15T06:33:28;4.60;99.90
52024;DHT22;38038;45.922;13.604;2023-02-15T06:35:55;5.10;99.90
52024;DHT22;38038;45.922;13.604;2023-02-15T06:38:22;5.50;99.90
52024;DHT22;38038;45.922;13.604;2023-02-15T06:40:48;5.80;99.90
52024;DHT22;38038;45.922;13.604;2023-02-15T06:43:13;5.90;99.90
52024;DHT22;38038;45.922;13.604;2023-02-15T06:45:39;6.10;99.90
52024;DHT22;38038;45.922;13.604;2023-02-15T06:48:06;6.40;99.90
52024;DHT22;38038;45.922;13.604;2023-02-15T06:50:33;5.70;99.90
52024;DHT22;38038;45.922;13.604;2023-02-15T06:52:59;4.60;99.90
52024;DHT22;38038;45.922;13.604;2023-02-15T06:55:25;3.70;99.90
52024;DHT22;38038;45.922;13.604;2023-02-15T06:57:51;3.10;99.90
52024;DHT22;38038;45.922;13.604;2023-02-15T07:00:18;3.00;99.90
52024;DHT22;38038;45.922;13.604;2023-02-15T07:02:44;2.70;99.90
52024;DHT22;38038;45.922;13.604;2023-02-15T07:05:10;2.60;99.90
52024;DHT22;38038;45.922;13.604;2023-02-15T07:07:35;2.50;99.90
52024;DHT22;38038;45.922;13.604;2023-02-15T07:10:02;2.50;99.90
52024;DHT22;38038;45.922;13.604;2023-02-15T07:12:27;2.60;99.90
52024;DHT22;38038;45.922;13.604;2023-02-15T07:15:11;2.90;99.90
52024;DHT22;38038;45.922;13.604;2023-02-15T07:17:38;3.00;99.90
52024;DHT22;38038;45.922;13.604;2023-02-15T07:20:06;3.20;99.90
52024;DHT22;38038;45.922;13.604;2023-02-15T07:22:33;3.50;99.90
52024;DHT22;38038;45.922;13.604;2023-02-15T07:25:02;3.60;99.90
52024;DHT22;38038;45.922;13.604;2023-02-15T07:27:29;3.80;99.90
52024;DHT22;38038;45.922;13.604;2023-02-15T07:29:55;3.90;99.90
52024;DHT22;38038;45.922;13.604;2023-02-15T07:32:21;4.00;99.90
52024;DHT22;38038;45.922;13.604;2023-02-15T07:34:46;4.10;99.90
52024;DHT22;38038;45.922;13.604;2023-02-15T07:37:12;4.30;99.90
52024;DHT22;38038;45.922;13.604;2023-02-15T07:39:38;4.50;99.90
52024;DHT22;38038;45.922;13.604;2023-02-15T07:42:03;4.70;99.90
52024;DHT22;38038;45.922;13.604;2023-02-15T07:44:30;4.70;99.90
52024;DHT22;38038;45.922;13.604;2023-02-15T07:46:56;5.00;99.90
52024;DHT22;38038;45.922;13.604;2023-02-15T07:49:21;5.10;99.90
52024;DHT22;38038;45.922;13.604;2023-02-15T07:51:47;5.20;99.90
52024;DHT22;38038;45.922;13.604;2023-02-15T07:54:13;5.40;99.90
52024;DHT22;38038;45.922;13.604;2023-02-15T07:56:39;5.40;99.90
52024;DHT22;38038;45.922;13.604;2023-02-15T07:59:04;5.60;99.90
52024;DHT22;38038;45.922;13.604;2023-02-15T08:01:33;5.70;99.90
52024;DHT22;38038;45.922;13.604;2023-02-15T08:03:59;5.80;99.90
52024;DHT22;38038;45.922;13.604;2023-02-15T08:06:27;5.90;99.90
52024;DHT22;38038;45.922;13.604;2023-02-15T08:08:54;6.10;99.90
52024;DHT22;38038;45.922;13.604;2023-02-15T08:11:30;6.20;99.90
52024;DHT22;38038;45.922;13.604;2023-02-15T08:16:36;6.50;99.90
52024;DHT22;38038;45.922;13.604;2023-02-15T08:21:37;7.00;99.90
52024;DHT22;38038;45.922;13.604;2023-02-15T08:24:04;7.10;99.90
52024;DHT22;38038;45.922;13.604;2023-02-15T08:26:30;7.30;99.90
52024;DHT22;38038;45.922;13.604;2023-02-15T08:28:57;7.60;99.90
52024;DHT22;38038;45.922;13.604;2023-02-15T08:31:23;7.90;99.90
52024;DHT22;38038;45.922;13.604;2023-02-15T08:33:50;8.10;99.90
52024;DHT22;38038;45.922;13.604;2023-02-15T08:36:18;8.40;99.90
52024;DHT22;38038;45.922;13.604;2023-02-15T08:38:45;8.50;99.90
52024;DHT22;38038;45.922;13.604;2023-02-15T08:41:20;8.70;99.90
52024;DHT22;38038;45.922;13.604;2023-02-15T08:43:47;8.90;99.90
52024;DHT22;38038;45.922;13.604;2023-02-15T08:46:15;9.10;99.90
52024;DHT22;38038;45.922;13.604;2023-02-15T08:48:41;9.20;99.90
52024;DHT22;38038;45.922;13.604;2023-02-15T08:51:18;9.30;99.90
52024;DHT22;38038;45.922;13.604;2023-02-15T08:53:47;9.50;99.30
52024;DHT22;38038;45.922;13.604;2023-02-15T08:56:17;9.80;98.20
52024;DHT22;38038;45.922;13.604;2023-02-15T08:58:44;10.10;97.60
52024;DHT22;38038;45.922;13.604;2023-02-15T09:01:15;10.10;98.00
52024;DHT22;38038;45.922;13.604;2023-02-15T09:03:46;10.20;97.40
52024;DHT22;38038;45.922;13.604;2023-02-15T09:06:13;10.30;96.80
52024;DHT22;38038;45.922;13.604;2023-02-15T09:08:39;10.40;96.80
52024;DHT22;38038;45.922;13.604;2023-02-15T09:11:11;10.40;96.20
52024;DHT22;38038;45.922;13.604;2023-02-15T09:13:38;10.50;95.50
52024;DHT22;38038;45.922;13.604;2023-02-15T09:16:06;10.50;95.90
52024;DHT22;38038;45.922;13.604;2023-02-15T09:18:36;10.60;95.60
52024;DHT22;38038;45.922;13.604;2023-02-15T09:21:10;10.60;96.00
52024;DHT22;38038;45.922;13.604;2023-02-15T09:23:39;10.70;95.50
52024;DHT22;38038;45.922;13.604;2023-02-15T09:26:07;10.70;96.70
52024;DHT22;38038;45.922;13.604;2023-02-15T09:28:33;10.70;95.90
52024;DHT22;38038;45.922;13.604;2023-02-15T09:31:07;10.70;95.90
52024;DHT22;38038;45.922;13.604;2023-02-15T09:33:34;10.70;96.10
52024;DHT22;38038;45.922;13.604;2023-02-15T09:36:00;10.70;95.60
52024;DHT22;38038;45.922;13.604;2023-02-15T09:38:26;10.70;95.40
52024;DHT22;38038;45.922;13.604;2023-02-15T09:41:12;10.70;95.70
52024;DHT22;38038;45.922;13.604;2023-02-15T10:00:57;11.00;94.50
52024;DHT22;38038;45.922;13.604;2023-02-15T10:11:15;11.40;93.90
52024;DHT22;38038;45.922;13.604;2023-02-15T10:19:26;11.70;93.90
52024;DHT22;38038;45.922;13.604;2023-02-15T10:25:12;11.70;92.90
52024;DHT22;38038;45.922;13.604;2023-02-15T10:27:50;11.80;92.90
52024;DHT22;38038;45.922;13.604;2023-02-15T10:41:22;11.90;92.50
52024;DHT22;38038;45.922;13.604;2023-02-15T11:01:18;12.40;90.40
52024;DHT22;38038;45.922;13.604;2023-02-15T11:03:33;12.40;90.60
52024;DHT22;38038;45.922;13.604;2023-02-15T11:08:26;12.70;89.80
52024;DHT22;38038;45.922;13.604;2023-02-15T11:10:58;12.80;89.70
52024;DHT22;38038;45.922;13.604;2023-02-15T11:13:31;12.80;88.90
52024;DHT22;38038;45.922;13.604;2023-02-15T11:16:05;12.80;89.20
52024;DHT22;38038;45.922;13.604;2023-02-15T11:21:10;13.40;87.90
52024;DHT22;38038;45.922;13.604;2023-02-15T11:23:44;13.40;88.00
52024;DHT22;38038;45.922;13.604;2023-02-15T11:26:29;13.40;87.90
52024;DHT22;38038;45.922;13.604;2023-02-15T11:29:18;13.50;88.00
52024;DHT22;38038;45.922;13.604;2023-02-15T11:31:56;13.50;87.20
52024;DHT22;38038;45.922;13.604;2023-02-15T11:34:39;13.60;87.20
52024;DHT22;38038;45.922;13.604;2023-02-15T11:37:13;13.70;87.50
52024;DHT22;38038;45.922;13.604;2023-02-15T11:39:40;13.70;87.70
52024;DHT22;38038;45.922;13.604;2023-02-15T11:42:18;13.70;87.00
52024;DHT22;38038;45.922;13.604;2023-02-15T11:45:04;13.80;86.20
52024;DHT22;38038;45.922;13.604;2023-02-15T11:47:40;13.90;85.70
52024;DHT22;38038;45.922;13.604;2023-02-15T11:50:10;14.00;85.60
52024;DHT22;38038;45.922;13.604;2023-02-15T11:52:36;14.20;83.40
52024;DHT22;38038;45.922;13.604;2023-02-15T11:55:09;14.30;82.70
52024;DHT22;38038;45.922;13.604;2023-02-15T11:57:40;14.30;82.90
52024;DHT22;38038;45.922;13.604;2023-02-15T12:02:57;14.60;81.70
52024;DHT22;38038;45.922;13.604;2023-02-15T12:05:26;14.80;81.60
52024;DHT22;38038;45.922;13.604;2023-02-15T12:07:57;14.80;82.00
52024;DHT22;38038;45.922;13.604;2023-02-15T12:10:38;14.70;81.40
52024;DHT22;38038;45.922;13.604;2023-02-15T12:13:14;14.80;80.90
52024;DHT22;38038;45.922;13.604;2023-02-15T12:15:46;14.80;81.00
52024;DHT22;38038;45.922;13.604;2023-02-15T12:20:59;14.80;80.80
52024;DHT22;38038;45.922;13.604;2023-02-15T12:23:28;14.80;81.30
52024;DHT22;38038;45.922;13.604;2023-02-15T12:25:56;14.80;81.50
52024;DHT22;38038;45.922;13.604;2023-02-15T12:28:33;14.80;80.70
52024;DHT22;38038;45.922;13.604;2023-02-15T12:31:02;14.70;80.00
52024;DHT22;38038;45.922;13.604;2023-02-15T12:33:40;14.70;78.60
52024;DHT22;38038;45.922;13.604;2023-02-15T12:36:15;14.80;79.50
52024;DHT22;38038;45.922;13.604;2023-02-15T12:38:43;14.80;79.70
52024;DHT22;38038;45.922;13.604;2023-02-15T12:41:25;14.80;79.30
52024;DHT22;38038;45.922;13.604;2023-02-15T12:44:05;14.90;78.40
52024;DHT22;38038;45.922;13.604;2023-02-15T12:46:31;14.90;77.90
52024;DHT22;38038;45.922;13.604;2023-02-15T12:51:49;14.90;78.40
52024;DHT22;38038;45.922;13.604;2023-02-15T12:54:32;14.90;78.40
52024;DHT22;38038;45.922;13.604;2023-02-15T12:57:26;15.00;78.50
52024;DHT22;38038;45.922;13.604;2023-02-15T13:00:27;14.90;78.90
52024;DHT22;38038;45.922;13.604;2023-02-15T13:02:56;15.00;78.00
52024;DHT22;38038;45.922;13.604;2023-02-15T13:05:37;15.10;78.90
52024;DHT22;38038;45.922;13.604;2023-02-15T13:08:18;15.10;78.80
52024;DHT22;38038;45.922;13.604;2023-02-15T13:11:11;15.10;78.90
52024;DHT22;38038;45.922;13.604;2023-02-15T13:14:05;15.10;79.00
52024;DHT22;38038;45.922;13.604;2023-02-15T13:16:41;15.20;78.60
52024;DHT22;38038;45.922;13.604;2023-02-15T13:19:22;15.20;77.80
52024;DHT22;38038;45.922;13.604;2023-02-15T13:21:52;15.10;77.80
52024;DHT22;38038;45.922;13.604;2023-02-15T13:27:14;15.00;78.50
52024;DHT22;38038;45.922;13.604;2023-02-15T13:29:45;15.00;80.20
52024;DHT22;38038;45.922;13.604;2023-02-15T13:32:33;15.10;80.30
52024;DHT22;38038;45.922;13.604;2023-02-15T13:35:02;15.10;79.70
52024;DHT22;38038;45.922;13.604;2023-02-15T13:48:48;15.00;79.30
52024;DHT22;38038;45.922;13.604;2023-02-15T14:05:19;15.00;83.20
52024;DHT22;38038;45.922;13.604;2023-02-15T14:16:17;14.70;85.40
52024;DHT22;38038;45.922;13.604;2023-02-15T14:21:31;14.70;85.00
52024;DHT22;38038;45.922;13.604;2023-02-15T14:24:24;14.60;84.30
52024;DHT22;38038;45.922;13.604;2023-02-15T14:29:53;14.40;85.20
52024;DHT22;38038;45.922;13.604;2023-02-15T14:32:33;14.40;85.50
52024;DHT22;38038;45.922;13.604;2023-02-15T14:35:03;14.30;85.60
52024;DHT22;38038;45.922;13.604;2023-02-15T14:37:57;14.30;86.20
52024;DHT22;38038;45.922;13.604;2023-02-15T14:46:03;14.10;85.90
52024;DHT22;38038;45.922;13.604;2023-02-15T14:51:01;14.00;86.50
52024;DHT22;38038;45.922;13.604;2023-02-15T14:56:21;13.90;87.00
52024;DHT22;38038;45.922;13.604;2023-02-15T15:01:32;13.90;88.90
52024;DHT22;38038;45.922;13.604;2023-02-15T15:07:23;13.80;89.70
52024;DHT22;38038;45.922;13.604;2023-02-15T15:14:58;13.60;90.20
52024;DHT22;38038;45.922;13.604;2023-02-15T15:20:11;13.60;90.50
52024;DHT22;38038;45.922;13.604;2023-02-15T15:22:42;13.50;90.70
52024;DHT22;38038;45.922;13.604;2023-02-15T15:28:06;13.40;91.30
52024;DHT22;38038;45.922;13.604;2023-02-15T15:33:32;13.30;92.10
52024;DHT22;38038;45.922;13.604;2023-02-15T15:42:08;13.00;93.30
52024;DHT22;38038;45.922;13.604;2023-02-15T15:44:58;12.90;93.60
52024;DHT22;38038;45.922;13.604;2023-02-15T15:50:32;12.90;94.30
52024;DHT22;38038;45.922;13.604;2023-02-15T15:52:59;12.80;94.50
52024;DHT22;38038;45.922;13.604;2023-02-15T15:55:29;12.70;94.80
52024;DHT22;38038;45.922;13.604;2023-02-15T15:58:04;12.60;95.20
52024;DHT22;38038;45.922;13.604;2023-02-15T16:02:56;12.50;95.90
52024;DHT22;38038;45.922;13.604;2023-02-15T16:05:22;12.40;96.30
52024;DHT22;38038;45.922;13.604;2023-02-15T16:07:49;12.30;96.60
52024;DHT22;38038;45.922;13.604;2023-02-15T16:10:26;12.10;96.80
52024;DHT22;38038;45.922;13.604;2023-02-15T16:12:53;12.10;96.90
52024;DHT22;38038;45.922;13.604;2023-02-15T16:15:36;12.00;97.30
52024;DHT22;38038;45.922;13.604;2023-02-15T16:18:14;11.90;97.50
52024;DHT22;38038;45.922;13.604;2023-02-15T16:20:40;11.80;97.80
52024;DHT22;38038;45.922;13.604;2023-02-15T16:23:39;11.80;97.80
52024;DHT22;38038;45.922;13.604;2023-02-15T16:29:17;11.50;98.80
52024;DHT22;38038;45.922;13.604;2023-02-15T16:31:55;11.40;98.90
52024;DHT22;38038;45.922;13.604;2023-02-15T16:34:21;11.30;99.20
52024;DHT22;38038;45.922;13.604;2023-02-15T16:36:47;11.20;99.40
52024;DHT22;38038;45.922;13.604;2023-02-15T16:39:20;11.20;99.50
52024;DHT22;38038;45.922;13.604;2023-02-15T16:41:47;11.10;99.80
52024;DHT22;38038;45.922;13.604;2023-02-15T16:44:18;11.00;99.90
52024;DHT22;38038;45.922;13.604;2023-02-15T16:46:51;10.90;99.90
52024;DHT22;38038;45.922;13.604;2023-02-15T16:49:27;10.80;99.90
52024;DHT22;38038;45.922;13.604;2023-02-15T16:52:00;10.80;99.90
52024;DHT22;38038;45.922;13.604;2023-02-15T16:54:28;10.70;99.90
52024;DHT22;38038;45.922;13.604;2023-02-15T16:56:55;10.70;99.90
52024;DHT22;38038;45.922;13.604;2023-02-15T16:59:29;10.60;99.90
52024;DHT22;38038;45.922;13.604;2023-02-15T17:01:56;10.50;99.90
52024;DHT22;38038;45.922;13.604;2023-02-15T17:06:58;10.20;99.90
52024;DHT22;38038;45.922;13.604;2023-02-15T17:09:24;10.10;99.90
52024;DHT22;38038;45.922;13.604;2023-02-15T17:11:50;10.10;99.90
52024;DHT22;38038;45.922;13.604;2023-02-15T17:14:37;10.10;99.90
52024;DHT22;38038;45.922;13.604;2023-02-15T17:17:07;10.00;99.90
52024;DHT22;38038;45.922;13.604;2023-02-15T17:19:51;9.90;99.90
52024;DHT22;38038;45.922;13.604;2023-02-15T17:22:25;9.80;99.90
52024;DHT22;38038;45.922;13.604;2023-02-15T17:25:00;9.80;99.90
52024;DHT22;38038;45.922;13.604;2023-02-15T17:27:27;9.70;99.90
52024;DHT22;38038;45.922;13.604;2023-02-15T17:30:03;9.70;99.90
52024;DHT22;38038;45.922;13.604;2023-02-15T17:32:31;9.60;99.90
52024;DHT22;38038;45.922;13.604;2023-02-15T17:35:20;9.50;99.90
52024;DHT22;38038;45.922;13.604;2023-02-15T17:37:48;9.40;99.90
52024;DHT22;38038;45.922;13.604;2023-02-15T17:40:20;9.30;99.90
52024;DHT22;38038;45.922;13.604;2023-02-15T17:42:46;9.20;99.90
52024;DHT22;38038;45.922;13.604;2023-02-15T17:45:12;9.10;99.90
52024;DHT22;38038;45.922;13.604;2023-02-15T17:47:37;9.00;99.90
52024;DHT22;38038;45.922;13.604;2023-02-15T17:50:05;8.90;99.90
52024;DHT22;38038;45.922;13.604;2023-02-15T17:52:31;8.80;99.90
52024;DHT22;38038;45.922;13.604;2023-02-15T17:54:58;8.80;99.90
52024;DHT22;38038;45.922;13.604;2023-02-15T17:57:42;8.80;99.90
52024;DHT22;38038;45.922;13.604;2023-02-15T18:00:12;8.60;99.90
52024;DHT22;38038;45.922;13.604;2023-02-15T18:02:56;8.60;99.90
52024;DHT22;38038;45.922;13.604;2023-02-15T18:05:40;8.50;99.90
52024;DHT22;38038;45.922;13.604;2023-02-15T18:08:26;8.50;99.90
52024;DHT22;38038;45.922;13.604;2023-02-15T18:11:11;8.40;99.90
52024;DHT22;38038;45.922;13.604;2023-02-15T18:13:55;8.30;99.90
52024;DHT22;38038;45.922;13.604;2023-02-15T18:16:27;8.30;99.90
52024;DHT22;38038;45.922;13.604;2023-02-15T18:18:54;8.20;99.90
52024;DHT22;38038;45.922;13.604;2023-02-15T18:21:20;8.00;99.90
52024;DHT22;38038;45.922;13.604;2023-02-15T18:23:46;8.00;99.90
52024;DHT22;38038;45.922;13.604;2023-02-15T18:26:17;7.80;99.90
52024;DHT22;38038;45.922;13.604;2023-02-15T18:28:43;7.70;99.90
52024;DHT22;38038;45.922;13.604;2023-02-15T18:31:10;7.70;99.90
52024;DHT22;38038;45.922;13.604;2023-02-15T18:33:43;7.60;99.90
52024;DHT22;38038;45.922;13.604;2023-02-15T18:36:16;7.60;99.90
52024;DHT22;38038;45.922;13.604;2023-02-15T18:38:42;7.50;99.90
52024;DHT22;38038;45.922;13.604;2023-02-15T18:41:17;7.40;99.90
52024;DHT22;38038;45.922;13.604;2023-02-15T18:43:44;7.30;99.90
52024;DHT22;38038;45.922;13.604;2023-02-15T18:46:10;7.20;99.90
52024;DHT22;38038;45.922;13.604;2023-02-15T18:48:36;7.10;99.90
52024;DHT22;38038;45.922;13.604;2023-02-15T18:51:01;7.10;99.90
52024;DHT22;38038;45.922;13.604;2023-02-15T18:53:27;7.10;99.90
52024;DHT22;38038;45.922;13.604;2023-02-15T18:55:53;7.00;99.90
52024;DHT22;38038;45.922;13.604;2023-02-15T18:58:21;6.90;99.90
52024;DHT22;38038;45.922;13.604;2023-02-15T19:00:49;6.90;99.90
52024;DHT22;38038;45.922;13.604;2023-02-15T19:03:16;6.90;99.90
52024;DHT22;38038;45.922;13.604;2023-02-15T19:05:44;6.90;99.90
52024;DHT22;38038;45.922;13.604;2023-02-15T19:08:18;6.80;99.90
52024;DHT22;38038;45.922;13.604;2023-02-15T19:10:46;6.70;99.90